Almena, Kansas
Current Conditions -  °F | °C
As of 8:53 AM on Monday 22 Dec 2014 (Local Time) from KHLC Reporting Station
Broken Clouds Broken Clouds  
Wind Chill: 33°   Ceiling: 8000
Heat Index: 40°   Visibility: 10mi
Dew Point: 32°   Wind: 10mph
Humidity: 73%   Direction: 300°WNW
Pressure: 29.63"   Gusts: NA
Location:  39.89°N, 99.71°W
Report Text: KHLC 221453Z AUTO 30009KT 10SM FEW050 BKN080 04/00 A2963 RMK AO2 SLP040 T00440000 51019
Loading
Personal Weather Stations






























Interactive Weather Map New forecast layout! Learn more

10-Day Weather Forecast

Advertisements
Track Severe Weather on mobile